Time;durP1;ratioP1;P1;durP2;ratioP2;P2;SDS_P1;SDS_P2;PMS_P1;PMS_P2;Temp;Humidity;BMP_temperature;BMP_pressure;BME280_temperature;BME280_humidity;BME280_pressure;Samples;Min_cycle;Max_cycle;Signal;HPM_P1;HPM_P2
2021/12/09 00:00:59;;;;;;;;;;;-2.70;99.90;;;;;;2625931;54;19943;-78
2021/12/09 00:03:32;;;;;;;;;;;-2.70;99.90;;;;;;2625803;54;19947;-78
2021/12/09 00:06:04;;;;;;;;;;;-2.70;99.90;;;;;;2624875;54;19945;-76
2021/12/09 00:08:42;;;;;;;;;;;-2.70;99.90;;;;;;2624619;54;19939;-77
2021/12/09 00:11:14;;;;;;;;;;;-2.70;99.90;;;;;;2625607;47;20642;-77
2021/12/09 00:13:46;;;;;;;;;;;-2.70;99.90;;;;;;2624914;54;19941;-77
2021/12/09 00:16:18;;;;;;;;;;;-2.60;99.90;;;;;;2624896;54;20484;-78
2021/12/09 00:18:48;;;;;;;;;;;-2.60;99.90;;;;;;2627322;39;20747;-75
2021/12/09 00:21:20;;;;;;;;;;;-2.60;99.90;;;;;;2626521;47;19938;-75
2021/12/09 00:23:53;;;;;;;;;;;-2.60;99.90;;;;;;2625822;54;20441;-74
2021/12/09 00:26:31;;;;;;;;;;;-2.60;99.90;;;;;;2626326;47;19938;-75
2021/12/09 00:29:03;;;;;;;;;;;-2.60;99.90;;;;;;2626285;54;19945;-75
2021/12/09 00:31:41;;;;;;;;;;;-2.60;99.90;;;;;;2626505;47;19945;-74
2021/12/09 00:34:13;;;;;;;;;;;-2.60;99.90;;;;;;2625792;54;20026;-75
2021/12/09 00:36:56;;;;;;;;;;;-2.60;99.90;;;;;;2626342;39;20335;-75
2021/12/09 00:39:29;;;;;;;;;;;-2.60;99.90;;;;;;2626229;39;20290;-74
2021/12/09 00:42:02;;;;;;;;;;;-2.50;99.90;;;;;;2625880;54;20022;-76
2021/12/09 00:44:34;;;;;;;;;;;-2.60;99.90;;;;;;2626659;46;20057;-74
2021/12/09 00:47:06;;;;;;;;;;;-2.60;99.90;;;;;;2625032;54;19946;-77
2021/12/09 00:49:38;;;;;;;;;;;-2.60;99.90;;;;;;2626861;46;19941;-76
2021/12/09 00:52:08;;;;;;;;;;;-2.60;99.90;;;;;;2625516;54;19950;-76
2021/12/09 00:54:59;;;;;;;;;;;-2.60;99.90;;;;;;2628487;46;19939;-75
2021/12/09 00:57:31;;;;;;;;;;;-2.60;99.90;;;;;;2626840;46;19938;-75
2021/12/09 01:00:03;;;;;;;;;;;-2.60;99.90;;;;;;2626034;54;20063;-77
2021/12/09 01:02:34;;;;;;;;;;;-2.50;99.90;;;;;;2626312;54;20581;-75
2021/12/09 01:05:08;;;;;;;;;;;-2.60;99.90;;;;;;2626241;54;19946;-76
2021/12/09 01:07:39;;;;;;;;;;;-2.60;99.90;;;;;;2625959;54;20029;-78
2021/12/09 01:10:15;;;;;;;;;;;-2.60;99.90;;;;;;2626275;54;19938;-76
2021/12/09 01:12:47;;;;;;;;;;;-2.60;99.90;;;;;;2626124;54;19939;-76
2021/12/09 01:15:19;;;;;;;;;;;-2.60;99.90;;;;;;2626409;54;19943;-76
2021/12/09 01:17:51;;;;;;;;;;;-2.60;99.90;;;;;;2625774;54;19938;-76
2021/12/09 01:20:25;;;;;;;;;;;-2.60;99.90;;;;;;2625730;54;19939;-75
2021/12/09 01:22:59;;;;;;;;;;;-2.60;99.90;;;;;;2626391;54;20014;-75
2021/12/09 01:25:47;;;;;;;;;;;-2.60;99.90;;;;;;2625778;54;19938;-77
2021/12/09 01:28:24;;;;;;;;;;;-2.70;99.90;;;;;;2626459;46;20390;-78
2021/12/09 01:31:01;;;;;;;;;;;-2.70;99.90;;;;;;2626389;54;19938;-76
2021/12/09 01:33:32;;;;;;;;;;;-2.70;99.90;;;;;;2628422;39;20424;-77
2021/12/09 01:36:03;;;;;;;;;;;-2.70;99.90;;;;;;2626573;54;19950;-77
2021/12/09 01:38:35;;;;;;;;;;;-2.60;99.90;;;;;;2626227;54;19939;-75
2021/12/09 01:41:14;;;;;;;;;;;-2.60;99.90;;;;;;2626521;54;19934;-74
2021/12/09 01:43:44;;;;;;;;;;;-2.60;99.90;;;;;;2626646;54;19946;-77
2021/12/09 01:46:15;;;;;;;;;;;-2.70;99.90;;;;;;2626349;54;19962;-76
2021/12/09 01:48:46;;;;;;;;;;;-2.70;99.90;;;;;;2625472;54;19951;-78
2021/12/09 01:51:18;;;;;;;;;;;-2.70;99.90;;;;;;2626054;46;19938;-77
2021/12/09 01:53:51;;;;;;;;;;;-2.70;99.90;;;;;;2626203;54;19946;-78
2021/12/09 01:56:26;;;;;;;;;;;-2.70;99.90;;;;;;2626043;54;19962;-75
2021/12/09 01:58:58;;;;;;;;;;;-2.70;99.90;;;;;;2626134;46;19962;-76
2021/12/09 02:01:30;;;;;;;;;;;-2.70;99.90;;;;;;2626541;39;20318;-77
2021/12/09 02:04:05;;;;;;;;;;;-2.70;99.90;;;;;;2626143;46;19954;-78
2021/12/09 02:06:40;;;;;;;;;;;-2.70;99.90;;;;;;2625669;54;19939;-78
2021/12/09 02:09:13;;;;;;;;;;;-2.70;99.90;;;;;;2626950;46;20387;-77
2021/12/09 02:11:47;;;;;;;;;;;-2.70;99.90;;;;;;2627194;54;19991;-78
2021/12/09 02:14:19;;;;;;;;;;;-2.70;99.90;;;;;;2626827;54;19942;-77
2021/12/09 02:16:51;;;;;;;;;;;-2.70;99.90;;;;;;2627939;46;19986;-75
2021/12/09 02:19:23;;;;;;;;;;;-2.70;99.90;;;;;;2626742;54;19945;-77
2021/12/09 02:21:57;;;;;;;;;;;-2.70;99.90;;;;;;2626894;54;19938;-77
2021/12/09 02:24:30;;;;;;;;;;;-2.70;99.90;;;;;;2626766;54;19945;-76
2021/12/09 02:27:02;;;;;;;;;;;-2.60;99.90;;;;;;2626414;54;20028;-76
2021/12/09 02:29:37;;;;;;;;;;;-2.60;99.90;;;;;;2626455;54;19938;-77
2021/12/09 02:32:09;;;;;;;;;;;-2.60;99.90;;;;;;2627384;46;19954;-79
2021/12/09 02:34:40;;;;;;;;;;;-2.60;99.90;;;;;;2626800;54;19945;-78
2021/12/09 02:37:15;;;;;;;;;;;-2.60;99.90;;;;;;2626565;54;19953;-78
2021/12/09 02:39:46;;;;;;;;;;;-2.60;99.90;;;;;;2627321;46;19990;-78
2021/12/09 02:42:19;;;;;;;;;;;-2.60;99.90;;;;;;2627111;54;19939;-79
2021/12/09 02:44:49;;;;;;;;;;;-2.60;99.90;;;;;;2627541;54;20399;-77
2021/12/09 02:47:22;;;;;;;;;;;-2.60;99.90;;;;;;2626433;54;19938;-75
2021/12/09 02:49:53;;;;;;;;;;;-2.60;99.90;;;;;;2624950;54;19951;-75
2021/12/09 02:52:28;;;;;;;;;;;-2.60;99.90;;;;;;2626187;54;19938;-76
2021/12/09 02:55:01;;;;;;;;;;;-2.60;99.90;;;;;;2625941;46;19938;-77
2021/12/09 02:57:32;;;;;;;;;;;-2.60;99.90;;;;;;2625013;47;19950;-77
2021/12/09 03:00:10;;;;;;;;;;;-2.60;99.90;;;;;;2624924;54;19942;-76
2021/12/09 03:02:44;;;;;;;;;;;-2.60;99.90;;;;;;2625886;46;20458;-77
2021/12/09 03:05:18;;;;;;;;;;;-2.50;99.90;;;;;;2624867;54;19939;-79
2021/12/09 03:07:52;;;;;;;;;;;-2.60;99.90;;;;;;2625468;54;19946;-79
2021/12/09 03:10:28;;;;;;;;;;;-2.50;99.90;;;;;;2624970;54;19943;-76
2021/12/09 03:13:04;;;;;;;;;;;-2.50;99.90;;;;;;2625104;47;19942;-76
2021/12/09 03:15:35;;;;;;;;;;;-2.50;99.90;;;;;;2624958;47;20418;-76
2021/12/09 03:18:07;;;;;;;;;;;-2.50;99.90;;;;;;2624529;54;19942;-77
2021/12/09 03:20:40;;;;;;;;;;;-2.50;99.90;;;;;;2625299;54;20008;-78
2021/12/09 03:23:14;;;;;;;;;;;-2.50;99.90;;;;;;2624952;54;20026;-76
2021/12/09 03:25:44;;;;;;;;;;;-2.50;99.90;;;;;;2626007;47;19943;-76
2021/12/09 03:28:16;;;;;;;;;;;-2.50;99.90;;;;;;2625429;54;20054;-77
2021/12/09 03:30:48;;;;;;;;;;;-2.50;99.90;;;;;;2625051;54;19945;-76
2021/12/09 03:33:20;;;;;;;;;;;-2.40;99.90;;;;;;2625011;47;19938;-76
2021/12/09 03:35:58;;;;;;;;;;;-2.50;99.90;;;;;;2624674;54;19951;-76
2021/12/09 03:38:33;;;;;;;;;;;-2.40;99.90;;;;;;2624378;54;19949;-76
2021/12/09 03:41:07;;;;;;;;;;;-2.40;99.90;;;;;;2624981;54;20044;-77
2021/12/09 03:43:38;;;;;;;;;;;-2.40;99.90;;;;;;2625503;54;19946;-77
2021/12/09 03:46:10;;;;;;;;;;;-2.40;99.90;;;;;;2625276;54;19969;-76
2021/12/09 03:48:42;;;;;;;;;;;-2.40;99.90;;;;;;2625344;54;19938;-77
2021/12/09 03:51:12;;;;;;;;;;;-2.40;99.90;;;;;;2624197;54;19957;-75
2021/12/09 03:53:47;;;;;;;;;;;-2.40;99.90;;;;;;2624799;54;19949;-76
2021/12/09 03:56:18;;;;;;;;;;;-2.40;99.90;;;;;;2624739;54;19945;-76
2021/12/09 03:58:50;;;;;;;;;;;-2.40;99.90;;;;;;2626040;47;19945;-75
2021/12/09 04:01:27;;;;;;;;;;;-2.40;99.90;;;;;;2625959;54;19939;-75
2021/12/09 04:03:57;;;;;;;;;;;-2.30;99.90;;;;;;2626003;54;20411;-76
2021/12/09 04:06:30;;;;;;;;;;;-2.30;99.90;;;;;;2625852;54;19986;-76
2021/12/09 04:09:04;;;;;;;;;;;-2.30;99.90;;;;;;2625581;54;19986;-75
2021/12/09 04:11:37;;;;;;;;;;;-2.30;99.90;;;;;;2625437;54;19942;-80
2021/12/09 04:14:08;;;;;;;;;;;-2.30;99.90;;;;;;2625826;54;19946;-76
2021/12/09 04:16:40;;;;;;;;;;;-2.40;99.90;;;;;;2624683;54;19987;-77
2021/12/09 04:19:12;;;;;;;;;;;-2.30;99.90;;;;;;2624795;54;19945;-76
2021/12/09 04:21:47;;;;;;;;;;;-2.40;99.90;;;;;;2625051;46;19935;-76
2021/12/09 04:24:22;;;;;;;;;;;-2.40;99.90;;;;;;2625588;54;19938;-76
2021/12/09 04:26:56;;;;;;;;;;;-2.30;99.90;;;;;;2625318;54;20391;-78
2021/12/09 04:29:27;;;;;;;;;;;-2.30;99.90;;;;;;2625921;54;19938;-77
2021/12/09 04:32:01;;;;;;;;;;;-2.30;99.90;;;;;;2625712;54;19994;-77
2021/12/09 04:34:33;;;;;;;;;;;-2.30;99.90;;;;;;2625349;54;19947;-76
2021/12/09 04:37:12;;;;;;;;;;;-2.30;99.90;;;;;;2625450;54;19942;-77
2021/12/09 04:39:46;;;;;;;;;;;-2.30;99.90;;;;;;2625594;54;19935;-76
2021/12/09 04:42:18;;;;;;;;;;;-2.30;99.90;;;;;;2624649;54;20541;-77
2021/12/09 04:44:50;;;;;;;;;;;-2.30;99.90;;;;;;2624984;54;19996;-78
2021/12/09 04:47:21;;;;;;;;;;;-2.30;99.90;;;;;;2625777;46;19945;-76
2021/12/09 04:49:52;;;;;;;;;;;-2.30;99.90;;;;;;2626504;39;20335;-76
2021/12/09 04:52:25;;;;;;;;;;;-2.30;99.90;;;;;;2624587;54;19974;-76
2021/12/09 04:54:59;;;;;;;;;;;-2.20;99.90;;;;;;2624515;54;19950;-77
2021/12/09 04:57:42;;;;;;;;;;;-2.20;99.90;;;;;;2625125;54;20405;-79
2021/12/09 05:00:14;;;;;;;;;;;-2.20;99.90;;;;;;2624684;54;19943;-76
2021/12/09 05:03:01;;;;;;;;;;;-2.20;99.90;;;;;;2625138;54;19961;-78
2021/12/09 05:05:35;;;;;;;;;;;-2.20;99.90;;;;;;2624684;54;19960;-76
2021/12/09 05:08:09;;;;;;;;;;;-2.20;99.90;;;;;;2625113;46;19950;-76
2021/12/09 05:11:02;;;;;;;;;;;-2.20;99.90;;;;;;2625236;54;19942;-75
2021/12/09 05:13:38;;;;;;;;;;;-2.20;99.90;;;;;;2624934;54;19949;-75
2021/12/09 05:16:11;;;;;;;;;;;-2.20;99.90;;;;;;2624725;54;19939;-80
2021/12/09 05:18:43;;;;;;;;;;;-2.20;99.90;;;;;;2624226;54;19934;-77
2021/12/09 05:21:17;;;;;;;;;;;-2.20;99.90;;;;;;2625154;39;20318;-76
2021/12/09 05:23:49;;;;;;;;;;;-2.20;99.90;;;;;;2624386;54;19949;-75
2021/12/09 05:26:24;;;;;;;;;;;-2.10;99.90;;;;;;2625455;46;19939;-78
2021/12/09 05:28:58;;;;;;;;;;;-2.10;99.90;;;;;;2625247;39;20282;-74
2021/12/09 05:34:19;;;;;;;;;;;-2.10;99.90;;;;;;2625757;46;19939;-76
2021/12/09 05:36:50;;;;;;;;;;;-2.10;99.90;;;;;;2625405;46;19942;-78
2021/12/09 05:39:22;;;;;;;;;;;-2.20;99.90;;;;;;2625426;54;19945;-77
2021/12/09 05:41:54;;;;;;;;;;;-2.20;99.90;;;;;;2624869;54;19938;-75
2021/12/09 05:44:29;;;;;;;;;;;-2.20;99.90;;;;;;2625034;54;19939;-76
2021/12/09 05:47:02;;;;;;;;;;;-2.20;99.90;;;;;;2625648;54;19946;-75
2021/12/09 05:49:34;;;;;;;;;;;-2.20;99.90;;;;;;2625459;54;19942;-76
2021/12/09 05:52:06;;;;;;;;;;;-2.20;99.90;;;;;;2625041;54;19945;-76
2021/12/09 05:54:38;;;;;;;;;;;-2.20;99.90;;;;;;2625024;54;19942;-77
2021/12/09 05:57:10;;;;;;;;;;;-2.10;99.90;;;;;;2625337;47;19962;-76
2021/12/09 05:59:44;;;;;;;;;;;-2.20;99.90;;;;;;2626197;54;19942;-75
2021/12/09 06:02:16;;;;;;;;;;;-2.10;99.90;;;;;;2625308;54;19965;-76
2021/12/09 06:04:48;;;;;;;;;;;-2.10;99.90;;;;;;2625534;46;19943;-76
2021/12/09 06:07:18;;;;;;;;;;;-2.10;99.90;;;;;;2627027;47;19938;-75
2021/12/09 06:09:51;;;;;;;;;;;-2.20;99.90;;;;;;2626181;47;19946;-77
2021/12/09 06:12:22;;;;;;;;;;;-2.10;99.90;;;;;;2624438;46;19958;-76
2021/12/09 06:14:56;;;;;;;;;;;-2.10;99.90;;;;;;2625846;31;20404;-76
2021/12/09 06:17:28;;;;;;;;;;;-2.10;99.90;;;;;;2625047;54;19950;-76
2021/12/09 06:20:01;;;;;;;;;;;-2.20;99.90;;;;;;2625044;46;19950;-78
2021/12/09 06:22:38;;;;;;;;;;;-2.10;99.90;;;;;;2627831;47;20391;-79
2021/12/09 06:25:18;;;;;;;;;;;-2.10;99.90;;;;;;2628622;54;19979;-81
2021/12/09 06:27:54;;;;;;;;;;;-2.10;99.90;;;;;;2629688;54;19967;-80
2021/12/09 06:30:34;;;;;;;;;;;-2.10;99.90;;;;;;2629568;54;19946;-80
2021/12/09 06:33:17;;;;;;;;;;;-2.10;99.90;;;;;;2630129;54;19927;-81
2021/12/09 06:35:50;;;;;;;;;;;-2.10;99.90;;;;;;2632645;39;20321;-81
2021/12/09 06:38:26;;;;;;;;;;;-2.10;99.90;;;;;;2630729;54;19929;-80
2021/12/09 06:41:00;;;;;;;;;;;-2.10;99.90;;;;;;2630704;54;19946;-80
2021/12/09 06:43:50;;;;;;;;;;;-2.10;99.90;;;;;;2630756;54;19919;-80
2021/12/09 06:46:27;;;;;;;;;;;-2.10;99.90;;;;;;2630566;54;19938;-81
2021/12/09 06:49:01;;;;;;;;;;;-2.10;99.90;;;;;;2629790;54;20017;-82
2021/12/09 06:51:34;;;;;;;;;;;-2.10;99.90;;;;;;2629802;54;19970;-80
2021/12/09 06:54:08;;;;;;;;;;;-2.10;99.90;;;;;;2628849;46;20472;-80
2021/12/09 06:56:40;;;;;;;;;;;-2.10;99.90;;;;;;2628390;54;20509;-82
2021/12/09 06:59:21;;;;;;;;;;;-2.10;99.90;;;;;;2629309;54;19983;-79
2021/12/09 07:02:00;;;;;;;;;;;-2.10;99.90;;;;;;2630960;46;19946;-82
2021/12/09 07:07:49;;;;;;;;;;;-2.10;99.90;;;;;;2629958;54;19942;-80
2021/12/09 07:10:36;;;;;;;;;;;-2.10;99.90;;;;;;2634137;46;19991;-82
2021/12/09 07:13:13;;;;;;;;;;;-2.10;99.90;;;;;;2630136;54;19949;-81
2021/12/09 07:15:45;;;;;;;;;;;-2.10;99.90;;;;;;2630786;54;19966;-79
2021/12/09 07:18:25;;;;;;;;;;;-2.10;99.90;;;;;;2633591;39;20357;-81
2021/12/09 07:20:57;;;;;;;;;;;-2.10;99.90;;;;;;2630418;54;19942;-79
2021/12/09 07:23:29;;;;;;;;;;;-2.10;99.90;;;;;;2630869;54;19946;-80
2021/12/09 07:26:06;;;;;;;;;;;-2.10;99.90;;;;;;2631830;31;20433;-79
2021/12/09 07:31:27;;;;;;;;;;;-2.10;99.90;;;;;;2629603;54;19946;-80
2021/12/09 07:34:13;;;;;;;;;;;-2.10;99.90;;;;;;2630906;54;19939;-80
2021/12/09 07:36:53;;;;;;;;;;;-2.00;99.90;;;;;;2630215;54;19942;-81
2021/12/09 07:39:27;;;;;;;;;;;-2.00;99.90;;;;;;2630060;54;20781;-77
2021/12/09 07:42:08;;;;;;;;;;;-2.00;99.90;;;;;;2621695;46;20007;-76
2021/12/09 07:44:40;;;;;;;;;;;-1.90;99.90;;;;;;2630926;54;19938;-78
2021/12/09 07:47:17;;;;;;;;;;;-1.90;99.90;;;;;;2630640;54;19935;-79
2021/12/09 07:49:53;;;;;;;;;;;-1.90;99.90;;;;;;2618882;54;19987;-73
2021/12/09 07:52:25;;;;;;;;;;;-1.90;99.90;;;;;;2623934;54;20308;-77
2021/12/09 07:54:59;;;;;;;;;;;-1.90;99.90;;;;;;2631503;54;19943;-81
2021/12/09 07:57:33;;;;;;;;;;;-1.80;99.90;;;;;;2632198;46;19943;-78
2021/12/09 08:00:07;;;;;;;;;;;-1.80;99.90;;;;;;2628290;47;20362;31
2021/12/09 08:02:41;;;;;;;;;;;-1.80;99.90;;;;;;2631479;54;19975;-80
2021/12/09 08:05:15;;;;;;;;;;;-1.80;99.90;;;;;;2631356;54;19938;-79
2021/12/09 08:07:49;;;;;;;;;;;-1.80;99.90;;;;;;2631514;54;20387;-79
2021/12/09 08:10:22;;;;;;;;;;;-1.80;99.90;;;;;;2631340;54;19986;-78
2021/12/09 08:12:55;;;;;;;;;;;-1.80;99.90;;;;;;2631563;54;19942;-80
2021/12/09 08:15:32;;;;;;;;;;;-1.80;99.90;;;;;;2628419;54;20014;-75
2021/12/09 08:18:25;;;;;;;;;;;-1.80;99.90;;;;;;2633324;46;19965;-78
2021/12/09 08:21:05;;;;;;;;;;;-1.70;99.90;;;;;;2630452;54;19945;-80
2021/12/09 08:23:37;;;;;;;;;;;-1.70;99.90;;;;;;2629928;54;19951;-81
2021/12/09 08:26:12;;;;;;;;;;;-1.70;99.90;;;;;;2623875;54;19945;-78
2021/12/09 08:28:43;;;;;;;;;;;-1.60;99.90;;;;;;2629645;54;19938;-79
2021/12/09 08:31:17;;;;;;;;;;;-1.60;99.90;;;;;;2629379;54;19938;-77
2021/12/09 08:33:49;;;;;;;;;;;-1.60;99.90;;;;;;2630294;46;19949;-79
2021/12/09 08:36:49;;;;;;;;;;;-1.60;99.90;;;;;;2629632;54;19946;-77
2021/12/09 08:39:23;;;;;;;;;;;-1.50;99.90;;;;;;2628559;54;19942;-77
2021/12/09 08:42:03;;;;;;;;;;;-1.40;99.90;;;;;;2628348;54;19939;-77
2021/12/09 08:44:35;;;;;;;;;;;-1.50;99.90;;;;;;2627523;46;19950;-78
2021/12/09 08:47:13;;;;;;;;;;;-1.50;99.90;;;;;;2628271;54;19990;-81
2021/12/09 08:49:51;;;;;;;;;;;-1.40;99.90;;;;;;2630975;46;19962;-77
2021/12/09 08:52:25;;;;;;;;;;;-1.40;99.90;;;;;;2627415;54;19961;-79
2021/12/09 08:54:57;;;;;;;;;;;-1.40;99.90;;;;;;2627881;54;19939;-78
2021/12/09 08:57:32;;;;;;;;;;;-1.40;99.90;;;;;;2628328;54;19965;-78
2021/12/09 09:00:05;;;;;;;;;;;-1.40;99.90;;;;;;2627143;54;19943;-77
2021/12/09 09:02:42;;;;;;;;;;;-1.30;99.90;;;;;;2627483;47;20850;-78
2021/12/09 09:05:14;;;;;;;;;;;-1.30;99.90;;;;;;2627711;54;20481;-77
2021/12/09 09:07:51;;;;;;;;;;;-1.30;99.90;;;;;;2629048;47;19942;-78
2021/12/09 09:10:22;;;;;;;;;;;-1.30;99.90;;;;;;2628203;46;19942;-77
2021/12/09 09:12:55;;;;;;;;;;;-1.30;99.90;;;;;;2632205;39;20316;-78
2021/12/09 09:15:31;;;;;;;;;;;-1.30;99.90;;;;;;2627068;54;19950;-79
2021/12/09 09:18:07;;;;;;;;;;;-1.20;99.90;;;;;;2627577;54;19942;-77
2021/12/09 09:20:39;;;;;;;;;;;-1.20;99.90;;;;;;2629210;54;19938;-77
2021/12/09 09:23:17;;;;;;;;;;;-1.20;99.90;;;;;;2627710;54;19938;-77
2021/12/09 09:25:50;;;;;;;;;;;-1.10;99.90;;;;;;2627722;46;19938;-79
2021/12/09 09:28:28;;;;;;;;;;;-1.10;99.90;;;;;;2626931;54;19938;-77
2021/12/09 09:31:03;;;;;;;;;;;-1.10;99.90;;;;;;2629949;54;19939;-78
2021/12/09 09:33:38;;;;;;;;;;;-1.20;99.90;;;;;;2631269;39;20282;-78
2021/12/09 09:36:12;;;;;;;;;;;-1.10;99.90;;;;;;2631103;54;19949;-77
2021/12/09 09:38:52;;;;;;;;;;;-1.10;99.90;;;;;;2631457;54;19933;-78
2021/12/09 09:41:31;;;;;;;;;;;-1.10;99.90;;;;;;2615483;54;20711;31
2021/12/09 09:44:15;;;;;;;;;;;-1.20;99.90;;;;;;2617568;54;19947;31
2021/12/09 09:46:47;;;;;;;;;;;-1.10;99.90;;;;;;2634756;39;20481;-78
2021/12/09 09:49:20;;;;;;;;;;;-1.10;99.90;;;;;;2630770;54;20406;-77
2021/12/09 09:51:58;;;;;;;;;;;-1.10;99.90;;;;;;2630564;54;19939;-78
2021/12/09 09:54:30;;;;;;;;;;;-1.10;99.90;;;;;;2627947;39;20394;-77
2021/12/09 09:57:04;;;;;;;;;;;-1.00;99.90;;;;;;2627281;54;19964;31
2021/12/09 09:59:35;;;;;;;;;;;-1.00;99.90;;;;;;2625777;54;19946;-78
2021/12/09 10:02:09;;;;;;;;;;;-1.00;99.90;;;;;;2627469;39;20391;-77
2021/12/09 10:04:45;;;;;;;;;;;-1.00;99.90;;;;;;2626474;54;19938;-76
2021/12/09 10:07:18;;;;;;;;;;;-0.90;99.90;;;;;;2626659;54;20006;-79
2021/12/09 10:09:53;;;;;;;;;;;-0.90;99.90;;;;;;2626486;46;20394;-78
2021/12/09 10:12:28;;;;;;;;;;;-0.90;99.90;;;;;;2626106;54;19946;-76
2021/12/09 10:14:59;;;;;;;;;;;-0.90;99.90;;;;;;2626388;54;19965;-77
2021/12/09 10:17:31;;;;;;;;;;;-0.90;99.90;;;;;;2625820;46;20022;-78
2021/12/09 10:20:14;;;;;;;;;;;-0.90;99.90;;;;;;2626695;54;19955;-81
2021/12/09 10:22:45;;;;;;;;;;;-0.80;99.90;;;;;;2626510;31;20355;-78
2021/12/09 10:25:21;;;;;;;;;;;-0.80;99.90;;;;;;2628640;39;20329;-78
2021/12/09 10:28:04;;;;;;;;;;;-0.70;99.90;;;;;;2625307;54;19942;-78
2021/12/09 10:30:39;;;;;;;;;;;-0.60;99.90;;;;;;2625409;54;19947;-78
2021/12/09 10:33:15;;;;;;;;;;;-0.60;99.90;;;;;;2624913;54;19945;-78
2021/12/09 10:35:47;;;;;;;;;;;-0.60;99.90;;;;;;2624874;54;19934;-80
2021/12/09 10:38:22;;;;;;;;;;;-0.50;99.90;;;;;;2625355;54;19961;-77
2021/12/09 10:40:53;;;;;;;;;;;-0.60;99.90;;;;;;2625055;54;19994;-78
2021/12/09 10:43:28;;;;;;;;;;;-0.60;99.90;;;;;;2628651;31;20421;-78
2021/12/09 10:46:01;;;;;;;;;;;-0.60;99.90;;;;;;2625255;54;19941;-79
2021/12/09 10:48:41;;;;;;;;;;;-0.60;99.90;;;;;;2625849;46;19982;-78
2021/12/09 10:51:25;;;;;;;;;;;-0.60;99.90;;;;;;2625604;54;19950;-78
2021/12/09 10:54:00;;;;;;;;;;;-0.60;99.90;;;;;;2627265;47;19939;-77
2021/12/09 10:56:33;;;;;;;;;;;-0.50;99.90;;;;;;2627578;47;20436;-78
2021/12/09 10:59:10;;;;;;;;;;;-0.50;99.90;;;;;;2625059;54;19957;-78
2021/12/09 11:01:42;;;;;;;;;;;-0.50;99.90;;;;;;2626005;54;19946;-79
2021/12/09 11:04:23;;;;;;;;;;;-0.50;99.90;;;;;;2625557;39;20330;-79
2021/12/09 11:06:55;;;;;;;;;;;-0.50;99.90;;;;;;2624362;54;20390;-79
2021/12/09 11:09:28;;;;;;;;;;;-0.50;99.90;;;;;;2624397;54;19966;-78
2021/12/09 11:12:02;;;;;;;;;;;-0.50;99.90;;;;;;2624160;47;19961;-79
2021/12/09 11:14:37;;;;;;;;;;;-0.40;99.90;;;;;;2625910;39;20290;-81
2021/12/09 11:17:09;;;;;;;;;;;-0.40;99.90;;;;;;2624852;54;19970;-79
2021/12/09 11:19:46;;;;;;;;;;;-0.40;99.90;;;;;;2624977;54;19943;-79
2021/12/09 11:22:19;;;;;;;;;;;-0.40;99.90;;;;;;2625271;54;19961;-78
2021/12/09 11:24:59;;;;;;;;;;;-0.40;99.90;;;;;;2625274;54;20411;-78
2021/12/09 11:27:31;;;;;;;;;;;-0.40;99.90;;;;;;2625839;54;19954;-78
2021/12/09 11:30:14;;;;;;;;;;;-0.40;99.90;;;;;;2625469;54;19946;-78
2021/12/09 11:32:57;;;;;;;;;;;-0.40;99.90;;;;;;2625758;54;19946;-81
2021/12/09 11:35:34;;;;;;;;;;;-0.40;99.90;;;;;;2625995;46;19954;-78
2021/12/09 11:38:18;;;;;;;;;;;-0.40;99.90;;;;;;2624913;47;19942;-77
2021/12/09 11:40:56;;;;;;;;;;;-0.40;99.90;;;;;;2625368;54;19934;-78
2021/12/09 11:43:29;;;;;;;;;;;-0.40;99.90;;;;;;2625834;54;19938;-79
2021/12/09 11:46:03;;;;;;;;;;;-0.30;99.90;;;;;;2626719;39;20321;-79
2021/12/09 11:48:35;;;;;;;;;;;-0.30;99.90;;;;;;2626236;54;19939;-79
2021/12/09 11:51:09;;;;;;;;;;;-0.30;99.90;;;;;;2626962;54;19942;-78
2021/12/09 11:53:43;;;;;;;;;;;-0.30;99.90;;;;;;2626853;47;20823;-78
2021/12/09 11:56:29;;;;;;;;;;;-0.30;99.90;;;;;;2625967;54;20788;-78
2021/12/09 11:59:41;;;;;;;;;;;-0.30;99.90;;;;;;2624608;47;19949;-77
2021/12/09 12:11:08;;;;;;;;;;;-0.20;99.90;;;;;;2625888;54;19971;-78
2021/12/09 12:11:19;;;;;;;;;;;-0.20;99.90;;;;;;2624516;47;20027;-80
2021/12/09 12:13:55;;;;;;;;;;;-0.20;99.90;;;;;;2624655;54;20466;-78
2021/12/09 12:16:42;;;;;;;;;;;-0.20;99.90;;;;;;2624153;39;20028;-80
2021/12/09 12:19:29;;;;;;;;;;;-0.20;99.90;;;;;;2624115;54;19950;-78
2021/12/09 12:22:20;;;;;;;;;;;-0.20;99.90;;;;;;2624141;54;19942;-80
2021/12/09 12:25:10;;;;;;;;;;;-0.20;99.90;;;;;;2624674;54;20468;-78
2021/12/09 12:27:50;;;;;;;;;;;-0.20;99.90;;;;;;2624832;54;19969;-80
2021/12/09 12:33:33;;;;;;;;;;;-0.20;99.90;;;;;;2626729;54;19946;-79
2021/12/09 12:39:18;;;;;;;;;;;-0.30;99.90;;;;;;2628086;54;19938;-79
2021/12/09 12:42:19;;;;;;;;;;;-0.30;99.90;;;;;;2628303;54;19942;-79
2021/12/09 12:45:06;;;;;;;;;;;-0.30;99.90;;;;;;2627804;54;20042;-77
2021/12/09 12:47:47;;;;;;;;;;;-0.30;99.90;;;;;;2626651;54;19939;-80
2021/12/09 12:50:20;;;;;;;;;;;-0.30;99.90;;;;;;2627187;46;19950;-80
2021/12/09 12:52:57;;;;;;;;;;;-0.20;99.90;;;;;;2626471;54;19945;-78
2021/12/09 12:55:36;;;;;;;;;;;-0.20;99.90;;;;;;2628152;39;20356;-78
2021/12/09 12:58:10;;;;;;;;;;;-0.20;99.90;;;;;;2630865;31;20402;-78
2021/12/09 13:00:48;;;;;;;;;;;-0.20;99.90;;;;;;2628479;46;19943;-78
2021/12/09 13:03:29;;;;;;;;;;;-0.20;99.90;;;;;;2626852;54;20394;-80
2021/12/09 13:06:08;;;;;;;;;;;-0.30;99.90;;;;;;2627229;39;20340;-77
2021/12/09 13:09:12;;;;;;;;;;;-0.20;99.90;;;;;;2626758;54;19957;-79
2021/12/09 13:11:50;;;;;;;;;;;-0.20;99.90;;;;;;2628329;54;19942;-78
2021/12/09 13:14:25;;;;;;;;;;;-0.20;99.90;;;;;;2628280;54;19938;-80
2021/12/09 13:17:05;;;;;;;;;;;-0.20;99.90;;;;;;2627382;54;19939;-78
2021/12/09 13:19:42;;;;;;;;;;;-0.20;99.90;;;;;;2627383;54;19949;-79
2021/12/09 13:22:26;;;;;;;;;;;-0.20;99.90;;;;;;2628840;39;20415;-82
2021/12/09 13:25:22;;;;;;;;;;;-0.20;99.90;;;;;;2628888;54;19986;-80
2021/12/09 13:27:59;;;;;;;;;;;-0.20;99.90;;;;;;2628194;54;19962;-78
2021/12/09 13:30:58;;;;;;;;;;;-0.20;99.90;;;;;;2628452;54;19950;-78
2021/12/09 13:33:45;;;;;;;;;;;-0.20;99.90;;;;;;2628000;54;19938;-80
2021/12/09 13:47:50;;;;;;;;;;;-0.20;99.90;;;;;;2627617;39;20645;-76
2021/12/09 13:55:50;;;;;;;;;;;-0.20;99.90;;;;;;2627573;39;20431;-78
2021/12/09 13:58:34;;;;;;;;;;;-0.10;99.90;;;;;;2628223;39;20334;-78
2021/12/09 14:01:08;;;;;;;;;;;-0.20;99.90;;;;;;2628305;54;19942;-79
2021/12/09 14:03:39;;;;;;;;;;;-0.10;99.90;;;;;;2629108;54;19945;-79
2021/12/09 14:06:13;;;;;;;;;;;-0.10;99.90;;;;;;2629408;46;19939;-78
2021/12/09 14:08:47;;;;;;;;;;;-0.10;99.90;;;;;;2626909;54;20038;-78
2021/12/09 14:11:24;;;;;;;;;;;-0.10;99.90;;;;;;2629553;39;20401;-80
2021/12/09 14:14:05;;;;;;;;;;;-0.10;99.90;;;;;;2627443;54;20509;-76
2021/12/09 14:16:49;;;;;;;;;;;-0.10;99.90;;;;;;2629493;54;19942;-82
2021/12/09 14:22:08;;;;;;;;;;;-0.10;99.90;;;;;;2631246;46;20026;-79
2021/12/09 14:24:43;;;;;;;;;;;-0.10;99.90;;;;;;2629073;54;19990;-81
2021/12/09 14:27:16;;;;;;;;;;;-0.10;99.90;;;;;;2628935;54;19946;-80
2021/12/09 14:29:57;;;;;;;;;;;-0.10;99.90;;;;;;2632931;39;20137;-81
2021/12/09 14:32:31;;;;;;;;;;;-0.10;99.90;;;;;;2629883;54;19939;-79
2021/12/09 14:35:03;;;;;;;;;;;-0.10;99.90;;;;;;2629500;54;20051;-81
2021/12/09 14:37:48;;;;;;;;;;;-0.10;99.90;;;;;;2629827;46;19939;-81
2021/12/09 14:40:20;;;;;;;;;;;-0.20;99.90;;;;;;2628285;54;19939;-79
2021/12/09 14:43:09;;;;;;;;;;;-0.20;99.90;;;;;;2628053;54;19923;-80
2021/12/09 14:46:02;;;;;;;;;;;-0.30;99.90;;;;;;2628780;54;19945;-82
2021/12/09 14:48:37;;;;;;;;;;;-0.30;99.90;;;;;;2627838;54;19956;-81
2021/12/09 14:51:14;;;;;;;;;;;-0.30;99.90;;;;;;2628687;54;19966;-80
2021/12/09 14:53:48;;;;;;;;;;;-0.30;99.90;;;;;;2629226;46;19943;-80
2021/12/09 14:56:27;;;;;;;;;;;-0.30;99.90;;;;;;2629405;46;20389;-81
2021/12/09 14:59:21;;;;;;;;;;;-0.30;99.90;;;;;;2628625;54;19977;-80
2021/12/09 15:02:08;;;;;;;;;;;-0.30;99.90;;;;;;2629386;54;19966;-81
2021/12/09 15:05:05;;;;;;;;;;;-0.20;99.90;;;;;;2629313;54;19939;-82
2021/12/09 15:07:47;;;;;;;;;;;-0.30;99.90;;;;;;2629188;54;20046;-80
2021/12/09 15:10:22;;;;;;;;;;;-0.30;99.90;;;;;;2629287;54;19943;-79
2021/12/09 15:12:55;;;;;;;;;;;-0.30;99.90;;;;;;2629391;54;19939;-83
2021/12/09 15:15:38;;;;;;;;;;;-0.20;99.90;;;;;;2628590;54;19945;-79
2021/12/09 15:18:16;;;;;;;;;;;-0.20;99.90;;;;;;2628100;54;19961;-78
2021/12/09 15:20:53;;;;;;;;;;;-0.20;99.90;;;;;;2628008;54;19946;-79
2021/12/09 15:23:40;;;;;;;;;;;-0.20;99.90;;;;;;2628318;54;19946;-80
2021/12/09 15:26:20;;;;;;;;;;;-0.20;99.90;;;;;;2628700;54;19942;-80
2021/12/09 15:29:08;;;;;;;;;;;-0.20;99.90;;;;;;2628344;54;19942;-80
2021/12/09 15:31:40;;;;;;;;;;;-0.20;99.90;;;;;;2628498;54;21133;-79
2021/12/09 15:34:21;;;;;;;;;;;-0.20;99.90;;;;;;2630549;47;19990;-79
2021/12/09 15:36:59;;;;;;;;;;;-0.20;99.90;;;;;;2628530;47;19939;-81
2021/12/09 15:39:33;;;;;;;;;;;-0.20;99.90;;;;;;2628444;54;19947;-79
2021/12/09 15:42:06;;;;;;;;;;;-0.20;99.90;;;;;;2629914;47;20453;-80
2021/12/09 15:44:43;;;;;;;;;;;-0.20;99.90;;;;;;2628890;54;19946;-75
2021/12/09 15:47:20;;;;;;;;;;;-0.20;99.90;;;;;;2626957;47;19938;-78